Time;durP1;ratioP1;P1;durP2;ratioP2;P2;SDS_P1;SDS_P2;PMS_P1;PMS_P2;Temp;Humidity;BMP_temperature;BMP_pressure;BME280_temperature;BME280_humidity;BME280_pressure;Samples;Min_cycle;Max_cycle;Signal;HPM_P1;HPM_P2
2021/12/12 00:09:10;;;;;;;;;;;;;;;2.37;67.55;99819.06;4324166;33;36107;-82
2021/12/12 00:15:31;;;;;;;;;;;;;;;;;;;;;
2021/12/12 00:18:19;;;;;;;;;;;;;;;2.72;65.95;99829.06;4334414;33;32280;-81
2021/12/12 00:21:36;;;;;;;;;;;;;;;2.31;67.31;99826.44;4322501;33;35937;-82
2021/12/12 00:24:36;;;;;;;;;;;;;;;2.74;66.01;99837.69;4343539;33;35467;-81
2021/12/12 00:36:22;;;;;;;;;;;;;;;2.61;65.94;99851.69;4331335;33;35230;-83
2021/12/12 00:39:24;;;;;;;;;;;;;;;2.35;66.82;99833.19;4343618;33;33164;-82
2021/12/12 00:45:51;;;;;;;;;;;;;;;2.23;67.33;99823.41;4294324;33;33577;-83
2021/12/12 00:49:31;;;;;;;;;;;;;;;2.29;67.57;99830.94;4295710;33;33138;-82
2021/12/12 00:54:55;;;;;;;;;;;;;;;2.09;68.16;99823.41;4282787;33;34621;-82
2021/12/12 01:13:31;;;;;;;;;;;;;;;;;;;;;
2021/12/12 01:16:42;;;;;;;;;;;;;;;2.23;67.21;99857.53;4272007;33;31871;-82
2021/12/12 01:19:53;;;;;;;;;;;;;;;1.83;68.40;99860.81;4248114;33;31631;-84
2021/12/12 01:23:25;;;;;;;;;;;;;;;1.94;67.93;99861.03;4301225;33;33714;-82
2021/12/12 01:26:39;;;;;;;;;;;;;;;2.25;66.84;99874.88;4293484;33;34607;-82
2021/12/12 01:35:26;;;;;;;;;;;;;;;2.31;66.02;99885.03;4355324;32;34487;-85
2021/12/12 01:45:04;;;;;;;;;;;;;;;2.39;66.05;99890.69;4348833;32;34326;-83
2021/12/12 01:51:08;;;;;;;;;;;;;;;;;;;;;
2021/12/12 01:54:18;;;;;;;;;;;;;;;2.11;66.48;99902.87;4331656;33;33051;-82
2021/12/12 01:57:06;;;;;;;;;;;;;;;2.33;66.19;99903.31;4303430;33;34462;-86
2021/12/12 02:03:38;;;;;;;;;;;;;;;1.80;67.06;99902.97;4316967;33;34393;-83
2021/12/12 02:09:06;;;;;;;;;;;;;;;2.26;66.34;99896.75;4343721;33;34843;-82
2021/12/12 02:13:03;;;;;;;;;;;;;;;2.01;66.83;99904.34;4344363;33;36217;-81
2021/12/12 02:18:42;;;;;;;;;;;;;;;1.81;67.39;99886.28;4344941;33;34367;-81
2021/12/12 02:37:48;;;;;;;;;;;;;;;1.64;67.81;99850.53;4349902;32;36268;-83
2021/12/12 02:40:56;;;;;;;;;;;;;;;;;;;;;
2021/12/12 02:44:33;;;;;;;;;;;;;;;1.86;67.54;99847.50;4359977;32;33156;-83
2021/12/12 02:47:21;;;;;;;;;;;;;;;1.91;66.92;99846.34;4361634;32;33469;-82
2021/12/12 02:54:25;;;;;;;;;;;;;;;2.16;66.51;99845.72;4329840;33;35214;-81
2021/12/12 02:57:57;;;;;;;;;;;;;;;1.88;67.18;99861.41;4329778;33;33153;-82
2021/12/12 03:00:17;;;;;;;;;;;;;;;2.06;66.70;99862.94;4313245;33;34060;-81
2021/12/12 03:03:10;;;;;;;;;;;;;;;2.12;66.51;99862.56;4289333;33;33466;-82
2021/12/12 03:10:39;;;;;;;;;;;;;;;2.20;66.19;99874.31;4287703;33;31571;-82
2021/12/12 03:16:09;;;;;;;;;;;;;;;2.07;66.02;99865.47;4303217;33;33409;-82
2021/12/12 03:19:47;;;;;;;;;;;;;;;2.02;66.26;99866.69;4307684;33;33454;-87
2021/12/12 03:22:54;;;;;;;;;;;;;;;2.11;65.54;99872.25;4299328;33;31934;-86
2021/12/12 03:25:07;;;;;;;;;;;;;;;2.07;65.90;99872.50;4287580;33;33636;-81
2021/12/12 03:34:23;;;;;;;;;;;;;;;;;;;;;
2021/12/12 03:38:01;;;;;;;;;;;;;;;1.95;65.79;99894.19;4335798;33;32143;-82
2021/12/12 03:40:33;;;;;;;;;;;;;;;1.96;65.71;99909.03;4302626;33;34835;-81
2021/12/12 03:44:05;;;;;;;;;;;;;;;1.70;66.55;99907.03;4314135;33;34847;-80
2021/12/12 03:46:44;;;;;;;;;;;;;;;1.92;65.66;99907.50;4328958;33;34160;-82
2021/12/12 03:49:45;;;;;;;;;;;;;;;2.08;65.44;99918.81;4360001;32;33286;-81
2021/12/12 03:56:57;;;;;;;;;;;;;;;2.19;64.62;99922.50;4329304;33;36400;-82
2021/12/12 03:59:25;;;;;;;;;;;;;;;2.19;64.33;99903.28;4335391;33;33421;-81
2021/12/12 04:02:30;;;;;;;;;;;;;;;2.17;64.64;99926.97;4337495;33;35402;-81
2021/12/12 04:14:52;;;;;;;;;;;;;;;;;;;;;
2021/12/12 04:27:02;;;;;;;;;;;;;;;;;;;;;
2021/12/12 04:30:04;;;;;;;;;;;;;;;;;;;;;
2021/12/12 04:32:52;;;;;;;;;;;;;;;1.79;64.55;99945.84;4389262;32;35050;-81
2021/12/12 04:45:12;;;;;;;;;;;;;;;1.71;65.01;99953.31;4351036;32;32906;-82
2021/12/12 04:57:58;;;;;;;;;;;;;;;1.73;65.08;99961.91;4375249;32;34117;-82
2021/12/12 05:01:43;;;;;;;;;;;;;;;1.48;65.10;99958.94;4375008;32;31701;-82
2021/12/12 05:07:59;;;;;;;;;;;;;;;2.00;63.93;99956.00;4353922;32;33405;-83
2021/12/12 05:11:30;;;;;;;;;;;;;;;1.83;64.54;99965.72;4271663;33;34520;-85
2021/12/12 05:23:34;;;;;;;;;;;;;;;1.89;64.08;99960.97;4327296;33;34241;-82
2021/12/12 05:36:20;;;;;;;;;;;;;;;1.93;63.90;99964.28;4316194;33;34369;-81
2021/12/12 05:42:32;;;;;;;;;;;;;;;2.08;63.39;99969.47;4273401;33;32290;-81
2021/12/12 05:44:45;;;;;;;;;;;;;;;2.08;63.52;99972.09;4278490;33;33398;-82
2021/12/12 05:51:43;;;;;;;;;;;;;;;2.37;62.19;99979.19;4301326;33;33141;-83
2021/12/12 05:54:28;;;;;;;;;;;;;;;;;;;;;
2021/12/12 06:00:21;;;;;;;;;;;;;;;1.91;63.77;99974.88;4345130;32;34631;-80
2021/12/12 06:03:14;;;;;;;;;;;;;;;2.12;62.83;99967.53;4349572;32;34204;-82
2021/12/12 06:06:29;;;;;;;;;;;;;;;1.60;64.19;99974.03;4342792;32;34403;-81
2021/12/12 06:19:32;;;;;;;;;;;;;;;1.62;64.29;99982.66;4360255;32;33683;-81
2021/12/12 06:22:28;;;;;;;;;;;;;;;1.77;63.94;99992.31;4330304;33;35013;-82
2021/12/12 06:28:35;;;;;;;;;;;;;;;1.45;64.58;99980.09;4344056;33;33840;-80
2021/12/12 06:37:28;;;;;;;;;;;;;;;1.59;63.84;99999.38;4315412;33;33945;-81
2021/12/12 06:43:56;;;;;;;;;;;;;;;1.52;64.29;100013.75;4309623;33;34083;-82
2021/12/12 06:46:42;;;;;;;;;;;;;;;1.61;64.23;100002.78;4311431;33;35776;-83
2021/12/12 06:56:38;;;;;;;;;;;;;;;1.84;63.38;100015.47;4343291;32;34938;-80
2021/12/12 07:05:12;;;;;;;;;;;;;;;;;;;;;
2021/12/12 07:08:02;;;;;;;;;;;;;;;1.85;62.83;100013.69;4360253;32;34887;-83
2021/12/12 07:11:14;;;;;;;;;;;;;;;1.98;62.78;100014.72;4347100;32;36987;-84
2021/12/12 07:14:30;;;;;;;;;;;;;;;;;;;;;
2021/12/12 07:17:28;;;;;;;;;;;;;;;;;;;;;
2021/12/12 07:20:35;;;;;;;;;;;;;;;;;;;;;
2021/12/12 07:29:22;;;;;;;;;;;;;;;2.15;62.23;100010.19;4386434;27;32257;-79
2021/12/12 07:31:52;;;;;;;;;;;;;;;1.62;63.26;100003.63;4368075;32;33288;-80
2021/12/12 07:34:19;;;;;;;;;;;;;;;1.86;62.56;100010.13;4398037;32;34756;-80
2021/12/12 07:36:48;;;;;;;;;;;;;;;2.02;62.65;100014.47;4384418;32;33864;-80
2021/12/12 07:39:17;;;;;;;;;;;;;;;2.21;61.83;100016.87;4405951;32;33264;-79
2021/12/12 07:41:45;;;;;;;;;;;;;;;2.00;62.56;100026.81;4395866;32;33594;-79
2021/12/12 07:44:13;;;;;;;;;;;;;;;1.94;62.71;100010.56;4380644;32;35281;-79
2021/12/12 07:46:42;;;;;;;;;;;;;;;2.22;nan;100026.44;4382386;32;34791;-79
2021/12/12 07:49:10;;;;;;;;;;;;;;;2.06;62.39;100010.72;4382166;32;33085;-79
2021/12/12 07:51:38;;;;;;;;;;;;;;;2.15;62.02;100009.38;4370436;32;33723;-80
2021/12/12 07:54:07;;;;;;;;;;;;;;;2.28;61.48;100018.22;4402489;32;36232;-79
2021/12/12 07:56:36;;;;;;;;;;;;;;;2.23;61.62;100026.38;4395514;32;32516;-79
2021/12/12 07:59:04;;;;;;;;;;;;;;;1.96;62.52;100030.53;4383091;32;33242;-79
2021/12/12 08:01:32;;;;;;;;;;;;;;;2.25;62.13;100028.91;4382230;32;34299;-80
2021/12/12 08:04:00;;;;;;;;;;;;;;;2.06;61.68;100017.75;4380554;32;35844;-79
2021/12/12 08:06:27;;;;;;;;;;;;;;;2.27;61.41;100022.63;4382562;32;35204;-80
2021/12/12 08:08:54;;;;;;;;;;;;;;;2.53;61.01;100019.34;4381424;32;33348;-79
2021/12/12 08:11:27;;;;;;;;;;;;;;;2.16;61.45;100029.44;4382974;32;34598;-81
2021/12/12 08:13:57;;;;;;;;;;;;;;;2.24;61.91;100033.31;4385225;32;34849;-80
2021/12/12 08:16:25;;;;;;;;;;;;;;;2.31;61.34;100028.53;4384107;32;34362;-79
2021/12/12 08:18:53;;;;;;;;;;;;;;;2.30;61.51;100027.72;4381452;32;32552;-80
2021/12/12 08:21:20;;;;;;;;;;;;;;;2.47;61.26;100030.22;4385771;32;34783;-80
2021/12/12 08:23:48;;;;;;;;;;;;;;;2.55;60.67;100027.97;4369666;32;35248;-79
2021/12/12 08:26:17;;;;;;;;;;;;;;;2.51;61.37;100036.13;4381563;32;34193;-79
2021/12/12 08:28:47;;;;;;;;;;;;;;;2.31;61.27;100053.03;4381842;32;33928;-79
2021/12/12 08:31:16;;;;;;;;;;;;;;;2.31;61.79;100054.78;4370624;32;33656;-78
2021/12/12 08:33:43;;;;;;;;;;;;;;;2.71;60.74;100047.16;4382653;32;34469;-80
2021/12/12 08:36:11;;;;;;;;;;;;;;;2.75;60.48;100048.69;4396443;32;34003;-80
2021/12/12 08:38:38;;;;;;;;;;;;;;;2.72;60.39;100058.53;4382290;32;33398;-81
2021/12/12 08:41:06;;;;;;;;;;;;;;;3.11;59.31;100054.37;4381166;32;33959;-81
2021/12/12 08:43:34;;;;;;;;;;;;;;;2.54;60.55;100063.06;4384277;32;34667;-80
2021/12/12 08:46:06;;;;;;;;;;;;;;;2.54;60.33;100054.34;4384872;32;34811;-80
2021/12/12 08:48:35;;;;;;;;;;;;;;;2.83;60.94;100044.69;4384847;32;33075;-80
2021/12/12 08:51:05;;;;;;;;;;;;;;;2.98;59.62;100045.53;4384407;32;34330;-80
2021/12/12 08:53:33;;;;;;;;;;;;;;;3.11;59.38;100050.00;4397265;32;36055;-80
2021/12/12 08:56:01;;;;;;;;;;;;;;;3.10;58.90;100048.28;4397219;32;34765;-81
2021/12/12 08:58:33;;;;;;;;;;;;;;;3.29;58.71;100050.66;4368041;32;33113;-80
2021/12/12 09:01:05;;;;;;;;;;;;;;;3.31;58.30;100047.00;4382798;32;32517;-80
2021/12/12 09:03:38;;;;;;;;;;;;;;;3.14;59.06;100041.91;4368377;32;34751;-80
2021/12/12 09:06:06;;;;;;;;;;;;;;;3.63;57.30;100045.88;4370613;32;34105;-79
2021/12/12 09:08:37;;;;;;;;;;;;;;;3.64;58.06;100041.44;4384716;32;33133;-80
2021/12/12 09:11:09;;;;;;;;;;;;;;;3.59;57.47;100036.47;4401363;32;34321;-80
2021/12/12 09:13:46;;;;;;;;;;;;;;;3.38;57.66;100032.53;4371963;32;34855;-79
2021/12/12 09:16:17;;;;;;;;;;;;;;;3.83;56.91;100034.97;4396333;32;36520;-80
2021/12/12 09:18:47;;;;;;;;;;;;;;;3.69;57.00;100026.25;4369417;32;31114;-80
2021/12/12 09:21:26;;;;;;;;;;;;;;;3.52;57.58;100029.06;4380152;32;33742;-80
2021/12/12 09:24:03;;;;;;;;;;;;;;;3.60;57.36;100022.38;4381470;32;34774;-82
2021/12/12 09:26:30;;;;;;;;;;;;;;;3.41;58.71;100018.38;4378872;32;35214;-80
2021/12/12 09:29:02;;;;;;;;;;;;;;;3.66;56.99;100015.88;4367882;32;34094;-81
2021/12/12 09:31:33;;;;;;;;;;;;;;;3.95;56.65;100018.38;4379323;32;34487;-80
2021/12/12 09:34:08;;;;;;;;;;;;;;;3.84;56.33;100017.38;4380493;32;35805;-80
2021/12/12 09:36:46;;;;;;;;;;;;;;;3.63;57.63;100024.84;4383219;32;35247;-81
2021/12/12 09:39:17;;;;;;;;;;;;;;;3.89;56.49;100010.03;4369512;32;33518;-80
2021/12/12 09:41:50;;;;;;;;;;;;;;;3.69;57.48;100013.91;4393860;32;32932;-81
2021/12/12 09:44:18;;;;;;;;;;;;;;;3.91;56.79;100016.03;4382247;32;35620;-79
2021/12/12 09:47:00;;;;;;;;;;;;;;;4.05;56.15;100016.84;4382548;32;33851;-80
2021/12/12 09:52:26;;;;;;;;;;;;;;;4.41;55.98;100016.25;4383087;32;33474;-80
2021/12/12 09:54:58;;;;;;;;;;;;;;;4.23;56.13;100013.03;4381294;32;34769;-80
2021/12/12 09:57:26;;;;;;;;;;;;;;;4.41;55.50;100018.88;4368549;32;34290;-80
2021/12/12 10:00:05;;;;;;;;;;;;;;;4.29;56.04;100022.31;4383736;32;33247;-80
2021/12/12 10:02:41;;;;;;;;;;;;;;;4.33;56.02;100015.94;4382465;32;32367;-80
2021/12/12 10:05:12;;;;;;;;;;;;;;;4.52;55.61;100029.56;4383151;32;35437;-81
2021/12/12 10:07:46;;;;;;;;;;;;;;;4.52;55.28;100026.94;4369716;32;35374;-80
2021/12/12 10:10:16;;;;;;;;;;;;;;;4.62;55.60;100023.59;4383124;32;33997;-81
2021/12/12 10:13:03;;;;;;;;;;;;;;;4.62;55.11;100010.41;4381794;32;33410;-81
2021/12/12 10:15:34;;;;;;;;;;;;;;;4.53;55.18;100021.56;4382489;32;34749;-80
2021/12/12 10:18:05;;;;;;;;;;;;;;;4.78;54.97;100029.53;4393863;32;35783;-81
2021/12/12 10:20:35;;;;;;;;;;;;;;;4.91;54.31;100019.00;4382992;32;32921;-81
2021/12/12 10:23:09;;;;;;;;;;;;;;;4.68;55.21;100027.59;4369202;32;34875;-81
2021/12/12 10:28:36;;;;;;;;;;;;;;;4.84;55.54;100034.41;4384349;32;34371;-76
2021/12/12 10:31:11;;;;;;;;;;;;;;;4.85;55.03;100032.59;4382430;32;33653;-80
2021/12/12 10:33:57;;;;;;;;;;;;;;;4.86;54.39;100031.66;4383256;32;36220;-80
2021/12/12 10:36:36;;;;;;;;;;;;;;;4.87;54.31;100020.16;4384504;32;36014;-80
2021/12/12 10:39:17;;;;;;;;;;;;;;;5.04;54.60;100019.84;4395032;32;34462;-79
2021/12/12 10:42:05;;;;;;;;;;;;;;;5.14;54.60;100029.69;4369553;32;32488;-80
2021/12/12 10:44:37;;;;;;;;;;;;;;;4.98;54.11;100015.84;4384242;32;33572;-80
2021/12/12 10:47:09;;;;;;;;;;;;;;;4.94;54.62;100027.56;4369297;32;35536;-80
2021/12/12 10:49:43;;;;;;;;;;;;;;;5.20;53.96;100016.06;4370771;32;35615;-80
2021/12/12 10:52:16;;;;;;;;;;;;;;;5.11;53.81;100016.72;4394766;32;33224;-80
2021/12/12 10:54:46;;;;;;;;;;;;;;;5.22;53.53;100026.50;4383685;32;33964;-80
2021/12/12 10:57:15;;;;;;;;;;;;;;;4.92;54.25;100016.25;4378484;32;34865;-79
2021/12/12 10:59:49;;;;;;;;;;;;;;;5.12;54.16;100015.75;4391151;32;33907;-80
2021/12/12 11:02:17;;;;;;;;;;;;;;;4.98;54.13;100009.75;4370068;32;33890;-80
2021/12/12 11:04:46;;;;;;;;;;;;;;;4.76;54.52;100018.25;4392579;32;33604;-80
2021/12/12 11:07:17;;;;;;;;;;;;;;;5.22;54.06;100016.81;4382584;32;34706;-81
2021/12/12 11:09:46;;;;;;;;;;;;;;;5.26;54.20;100022.72;4389861;32;34384;-79
2021/12/12 11:12:18;;;;;;;;;;;;;;;5.41;53.43;100025.16;4380636;32;33527;-80
2021/12/12 11:14:52;;;;;;;;;;;;;;;5.05;53.65;100018.91;4380332;32;35131;-81
2021/12/12 11:17:46;;;;;;;;;;;;;;;5.24;53.53;100008.78;4383237;32;35341;-81
2021/12/12 11:20:16;;;;;;;;;;;;;;;5.37;53.76;100018.38;4372883;32;33788;-80
2021/12/12 11:22:47;;;;;;;;;;;;;;;5.00;54.20;100015.75;4383178;32;32432;-80
2021/12/12 11:25:22;;;;;;;;;;;;;;;5.09;54.02;100023.03;4383114;32;33683;-79
2021/12/12 11:28:00;;;;;;;;;;;;;;;5.09;54.06;100020.41;4381517;32;36747;-79
2021/12/12 11:30:31;;;;;;;;;;;;;;;5.47;53.64;100001.81;4366701;32;801978;-79
2021/12/12 11:32:59;;;;;;;;;;;;;;;5.29;53.87;100004.03;4389846;32;33972;-79
2021/12/12 11:35:27;;;;;;;;;;;;;;;5.13;54.07;99993.72;4382161;32;34553;-80
2021/12/12 11:37:55;;;;;;;;;;;;;;;5.23;53.30;99997.41;4390983;32;35955;-80
2021/12/12 11:40:28;;;;;;;;;;;;;;;5.47;53.25;100002.78;4395911;32;33689;-80
2021/12/12 11:42:58;;;;;;;;;;;;;;;5.37;53.45;99991.19;4380210;32;32290;-80
2021/12/12 11:45:45;;;;;;;;;;;;;;;5.31;53.66;99983.69;4368489;32;34283;-81
2021/12/12 11:48:15;;;;;;;;;;;;;;;5.15;54.02;99981.25;4381831;32;35635;-82
2021/12/12 11:50:59;;;;;;;;;;;;;;;5.37;53.26;99978.81;4381644;32;33576;-81
2021/12/12 11:53:39;;;;;;;;;;;;;;;5.37;53.23;99988.53;4382724;32;33358;-80
2021/12/12 11:56:10;;;;;;;;;;;;;;;5.39;53.07;99970.81;4396068;32;34085;-81
2021/12/12 11:58:46;;;;;;;;;;;;;;;5.43;52.48;99983.66;4369647;32;35727;-81
2021/12/12 12:01:22;;;;;;;;;;;;;;;5.38;52.93;99985.78;4383367;32;34845;-79
2021/12/12 12:04:05;;;;;;;;;;;;;;;5.39;52.77;99981.34;4370758;32;32400;-80
2021/12/12 12:07:11;;;;;;;;;;;;;;;5.35;52.98;99995.72;4394762;32;33688;-80
2021/12/12 12:09:48;;;;;;;;;;;;;;;5.37;53.12;99989.38;4360558;32;34285;-81
2021/12/12 12:12:24;;;;;;;;;;;;;;;5.53;52.95;99995.25;4361112;32;34115;-83
2021/12/12 12:15:04;;;;;;;;;;;;;;;5.46;52.99;99996.62;4349430;32;34513;-80
2021/12/12 12:17:37;;;;;;;;;;;;;;;5.53;52.67;100000.53;4349834;32;33623;-80
2021/12/12 12:20:05;;;;;;;;;;;;;;;5.56;52.69;99987.97;4349564;32;35074;-80
2021/12/12 12:23:16;;;;;;;;;;;;;;;5.42;52.47;100000.44;4349434;32;35346;-80
2021/12/12 12:28:56;;;;;;;;;;;;;;;5.71;52.42;100015.91;4319387;33;34521;-80
2021/12/12 12:31:47;;;;;;;;;;;;;;;6.03;51.80;100000.44;4307371;33;36109;-79
2021/12/12 12:34:37;;;;;;;;;;;;;;;5.87;51.81;100013.06;4264257;33;33082;-79
2021/12/12 12:37:23;;;;;;;;;;;;;;;5.76;51.94;100016.44;4276198;33;32579;-80
2021/12/12 12:40:09;;;;;;;;;;;;;;;5.70;52.00;100016.03;4282310;33;34759;-79
2021/12/12 12:46:23;;;;;;;;;;;;;;;5.36;52.90;100026.41;4305908;33;35747;-82
2021/12/12 12:49:04;;;;;;;;;;;;;;;5.43;53.10;100032.94;4306228;33;33422;-80
2021/12/12 12:51:50;;;;;;;;;;;;;;;5.22;53.25;100019.47;4305598;33;34120;-80
2021/12/12 12:54:27;;;;;;;;;;;;;;;5.45;53.08;100012.59;4304997;33;34842;-80
2021/12/12 12:56:54;;;;;;;;;;;;;;;5.34;52.96;100029.16;4313973;33;35741;-80
2021/12/12 12:59:37;;;;;;;;;;;;;;;5.26;53.02;100022.72;4321709;33;32995;-80
2021/12/12 13:02:12;;;;;;;;;;;;;;;5.51;52.97;100019.09;4309526;33;32198;-80
2021/12/12 13:04:56;;;;;;;;;;;;;;;5.72;52.37;100022.91;4332589;32;36330;-81
2021/12/12 13:07:39;;;;;;;;;;;;;;;5.73;52.14;100016.66;4323032;33;34006;-80
2021/12/12 13:10:08;;;;;;;;;;;;;;;5.56;52.47;100024.06;4321890;33;33941;-80
2021/12/12 13:12:44;;;;;;;;;;;;;;;5.54;52.78;100033.87;4389597;32;32868;-80
2021/12/12 13:15:12;;;;;;;;;;;;;;;5.91;52.03;100036.50;4381667;32;35436;-81
2021/12/12 13:17:43;;;;;;;;;;;;;;;5.91;51.67;100036.50;4385062;32;35577;-82
2021/12/12 13:20:29;;;;;;;;;;;;;;;7.00;49.26;100045.94;4383314;32;35410;-80
2021/12/12 13:22:57;;;;;;;;;;;;;;;7.20;48.04;100042.62;4389776;32;34206;-79
2021/12/12 13:26:01;;;;;;;;;;;;;;;7.26;48.21;100042.16;4386699;32;34353;-82
2021/12/12 13:28:52;;;;;;;;;;;;;;;7.06;48.66;100047.25;4334870;33;33878;-79
2021/12/12 13:31:23;;;;;;;;;;;;;;;6.97;49.06;100051.47;4308921;33;33308;-79
2021/12/12 13:33:57;;;;;;;;;;;;;;;6.92;48.36;100044.84;4333205;32;33606;-78
2021/12/12 13:36:30;;;;;;;;;;;;;;;7.45;47.92;100062.75;4321495;33;36715;-80
2021/12/12 13:38:58;;;;;;;;;;;;;;;8.02;46.24;100068.81;4320676;33;34098;-79
2021/12/12 13:41:26;;;;;;;;;;;;;;;8.16;45.54;100066.72;4321425;33;33621;-80
2021/12/12 13:44:00;;;;;;;;;;;;;;;8.75;44.12;100068.06;4336801;32;33741;-81
2021/12/12 13:46:43;;;;;;;;;;;;;;;8.16;45.05;100085.28;4331776;33;35493;-81
2021/12/12 13:49:11;;;;;;;;;;;;;;;8.82;43.94;100090.47;4329825;33;34875;-81
2021/12/12 13:51:47;;;;;;;;;;;;;;;8.81;43.77;100084.31;4337835;32;33111;-81
2021/12/12 13:54:24;;;;;;;;;;;;;;;8.20;45.33;100076.16;4332894;33;33588;-81
2021/12/12 13:57:08;;;;;;;;;;;;;;;8.53;44.83;100081.41;4320941;33;34595;-80
2021/12/12 13:59:39;;;;;;;;;;;;;;;8.75;44.81;100084.81;4308987;33;34446;-80
2021/12/12 14:02:08;;;;;;;;;;;;;;;8.63;44.32;100085.81;4338868;32;33292;-80
2021/12/12 14:04:45;;;;;;;;;;;;;;;8.34;44.62;100091.81;4374892;32;35321;-81
2021/12/12 14:07:27;;;;;;;;;;;;;;;8.47;44.46;100095.13;4382765;32;33529;-80
2021/12/12 14:09:54;;;;;;;;;;;;;;;8.24;45.61;100100.59;4365363;32;34795;-80
2021/12/12 14:12:23;;;;;;;;;;;;;;;7.80;46.51;100096.12;4363216;32;32538;-80
2021/12/12 14:14:53;;;;;;;;;;;;;;;7.57;47.38;100099.69;4376446;32;34021;-80
2021/12/12 14:17:30;;;;;;;;;;;;;;;7.78;46.70;100095.41;4362769;32;35550;-80
2021/12/12 14:19:59;;;;;;;;;;;;;;;7.24;47.82;100094.34;4376924;32;35384;-80
2021/12/12 14:22:26;;;;;;;;;;;;;;;7.27;47.78;100103.88;4387519;32;34049;-80
2021/12/12 14:24:56;;;;;;;;;;;;;;;7.36;47.47;100111.94;4389653;32;34893;-80
2021/12/12 14:27:24;;;;;;;;;;;;;;;6.96;48.81;100109.75;4359659;32;35215;-80
2021/12/12 14:29:51;;;;;;;;;;;;;;;6.91;49.01;100110.09;4366576;32;34485;-79
2021/12/12 14:32:21;;;;;;;;;;;;;;;6.73;49.11;100107.97;4369092;32;31493;-80
2021/12/12 14:34:57;;;;;;;;;;;;;;;6.80;49.06;100122.44;4356170;32;34898;-79
2021/12/12 14:37:28;;;;;;;;;;;;;;;6.32;50.37;100120.69;4367937;32;35459;-80
2021/12/12 14:40:07;;;;;;;;;;;;;;;6.05;50.90;100122.69;4368249;32;34463;-79
2021/12/12 14:42:54;;;;;;;;;;;;;;;5.33;52.88;100127.72;4370951;32;34418;-81
2021/12/12 14:45:31;;;;;;;;;;;;;;;5.53;52.38;100120.12;4375585;32;33789;-81
2021/12/12 14:48:03;;;;;;;;;;;;;;;5.31;53.45;100123.47;4374764;32;35392;-80
2021/12/12 14:50:39;;;;;;;;;;;;;;;5.10;53.40;100117.00;4356281;32;34901;-80
2021/12/12 14:53:09;;;;;;;;;;;;;;;5.04;53.77;100117.41;4367985;32;34021;-81
2021/12/12 14:55:45;;;;;;;;;;;;;;;4.94;54.04;100118.97;4366437;32;34215;-79
2021/12/12 14:58:14;;;;;;;;;;;;;;;4.50;55.46;100135.03;4368429;32;35094;-79
2021/12/12 15:01:00;;;;;;;;;;;;;;;4.53;55.43;100147.19;4365948;32;35678;-79
2021/12/12 15:03:31;;;;;;;;;;;;;;;4.36;55.82;100150.03;4368831;32;33271;-79
2021/12/12 15:06:06;;;;;;;;;;;;;;;4.16;56.28;100146.00;4368115;32;34072;-79
2021/12/12 15:08:39;;;;;;;;;;;;;;;4.34;55.78;100159.84;4376781;32;35643;-80
2021/12/12 15:11:10;;;;;;;;;;;;;;;4.73;54.64;100166.00;4377234;32;35081;-80
2021/12/12 15:13:40;;;;;;;;;;;;;;;4.58;55.49;100163.53;4365708;32;32575;-80
2021/12/12 15:16:09;;;;;;;;;;;;;;;4.58;55.37;100169.66;4366757;32;32704;-80
2021/12/12 15:18:40;;;;;;;;;;;;;;;4.69;54.71;100159.25;4366792;32;33177;-80
2021/12/12 15:21:28;;;;;;;;;;;;;;;4.53;55.16;100169.09;4366190;32;34603;-80
2021/12/12 15:24:13;;;;;;;;;;;;;;;4.47;55.48;100172.13;4355443;32;33041;-79
2021/12/12 15:26:41;;;;;;;;;;;;;;;4.54;55.00;100168.12;4366260;32;34352;-79
2021/12/12 15:29:10;;;;;;;;;;;;;;;4.33;55.58;100184.47;4371327;32;35325;-80
2021/12/12 15:31:44;;;;;;;;;;;;;;;4.28;55.94;100181.28;4390992;32;33653;-79
2021/12/12 15:34:14;;;;;;;;;;;;;;;3.91;56.82;100187.09;4382997;32;33104;-79
2021/12/12 15:36:42;;;;;;;;;;;;;;;3.92;56.92;100197.56;4381916;32;33696;-79
2021/12/12 15:39:14;;;;;;;;;;;;;;;4.06;56.63;100189.66;4399106;32;35830;-80
2021/12/12 15:41:43;;;;;;;;;;;;;;;3.87;57.60;100188.25;4369830;32;34550;-79
2021/12/12 15:44:12;;;;;;;;;;;;;;;3.75;57.99;100200.34;4377178;32;32821;-80
2021/12/12 15:46:40;;;;;;;;;;;;;;;3.70;58.04;100194.50;4370320;32;33756;-80
2021/12/12 15:49:10;;;;;;;;;;;;;;;3.94;57.42;100205.34;4381839;32;34932;-79
2021/12/12 15:51:37;;;;;;;;;;;;;;;3.95;57.32;100201.75;4380115;32;36588;-80
2021/12/12 15:54:13;;;;;;;;;;;;;;;3.72;58.09;100203.19;4381322;32;33253;-79
2021/12/12 15:56:45;;;;;;;;;;;;;;;3.89;57.65;100210.88;4402893;32;34477;-79
2021/12/12 15:59:18;;;;;;;;;;;;;;;3.97;56.98;100211.25;4382164;32;34565;-80
2021/12/12 16:02:01;;;;;;;;;;;;;;;3.82;57.82;100216.63;4392874;32;34710;-80
2021/12/12 16:04:30;;;;;;;;;;;;;;;3.90;57.41;100215.22;4394095;32;34181;-79
2021/12/12 16:07:03;;;;;;;;;;;;;;;3.81;57.51;100217.56;4382129;32;33752;-79
2021/12/12 16:09:33;;;;;;;;;;;;;;;3.55;57.86;100229.63;4395184;32;35403;-79
2021/12/12 16:12:08;;;;;;;;;;;;;;;3.56;58.10;100230.47;4371430;32;34794;-79
2021/12/12 16:14:37;;;;;;;;;;;;;;;3.59;58.11;100225.88;4373765;32;34431;-79
2021/12/12 16:17:23;;;;;;;;;;;;;;;3.66;57.97;100231.62;4372370;32;34193;-79
2021/12/12 16:19:52;;;;;;;;;;;;;;;3.89;57.61;100229.31;4375082;32;34215;-79
2021/12/12 16:22:25;;;;;;;;;;;;;;;3.86;57.37;100242.66;4383270;32;35042;-80
2021/12/12 16:25:00;;;;;;;;;;;;;;;3.73;57.78;100236.44;4369269;32;33406;-79
2021/12/12 16:27:28;;;;;;;;;;;;;;;3.78;57.41;100238.81;4375757;32;33234;-81
2021/12/12 16:30:00;;;;;;;;;;;;;;;3.44;58.53;100246.97;4382156;32;34911;-80
2021/12/12 16:32:30;;;;;;;;;;;;;;;3.59;57.96;100239.03;4384088;32;35735;-79
2021/12/12 16:35:00;;;;;;;;;;;;;;;3.40;58.79;100241.03;4383385;32;33457;-81
2021/12/12 16:37:29;;;;;;;;;;;;;;;3.44;58.43;100250.47;4371957;32;34661;-82
2021/12/12 16:40:04;;;;;;;;;;;;;;;3.80;57.34;100248.28;4383680;32;36279;-80
2021/12/12 16:42:32;;;;;;;;;;;;;;;3.41;58.56;100252.41;4372049;32;33755;-81
2021/12/12 16:45:09;;;;;;;;;;;;;;;3.59;58.34;100248.72;4382782;32;33743;-78
2021/12/12 16:47:41;;;;;;;;;;;;;;;3.46;58.77;100251.22;4385288;32;34716;-80
2021/12/12 16:50:16;;;;;;;;;;;;;;;3.39;58.86;100256.88;4384100;32;36368;-80
2021/12/12 16:52:45;;;;;;;;;;;;;;;3.52;58.86;100266.63;4383061;32;33307;-80
2021/12/12 16:55:21;;;;;;;;;;;;;;;3.54;58.55;100259.50;4383474;32;32996;-80
2021/12/12 16:57:55;;;;;;;;;;;;;;;3.30;58.81;100265.34;4371313;32;33603;-79
2021/12/12 17:00:27;;;;;;;;;;;;;;;3.42;59.08;100254.09;4371250;32;34713;-79
2021/12/12 17:02:57;;;;;;;;;;;;;;;3.71;58.03;100248.81;4383588;32;34420;-80
2021/12/12 17:05:26;;;;;;;;;;;;;;;3.47;58.73;100249.41;4398753;32;33263;-80
2021/12/12 17:08:04;;;;;;;;;;;;;;;3.77;57.86;100252.91;4384485;32;32580;-79
2021/12/12 17:10:31;;;;;;;;;;;;;;;3.43;58.30;100255.78;4385889;32;34964;-80
2021/12/12 17:12:59;;;;;;;;;;;;;;;3.37;58.98;100251.75;4382467;32;34944;-78
2021/12/12 17:15:28;;;;;;;;;;;;;;;3.15;59.61;100250.44;4389239;32;32276;-79
2021/12/12 17:18:14;;;;;;;;;;;;;;;3.44;58.55;100249.59;4383515;32;33715;-79
2021/12/12 17:20:44;;;;;;;;;;;;;;;3.69;57.90;100249.88;4371086;32;35085;-79
2021/12/12 17:23:20;;;;;;;;;;;;;;;3.40;58.65;100241.03;4373288;32;35272;-79
2021/12/12 17:25:50;;;;;;;;;;;;;;;3.72;57.54;100247.91;4371376;32;32856;-80
2021/12/12 17:28:20;;;;;;;;;;;;;;;3.59;58.38;100246.91;4372690;32;33763;-79
2021/12/12 17:31:14;;;;;;;;;;;;;;;3.75;57.31;100234.56;4370086;32;35614;-79
2021/12/12 17:34:00;;;;;;;;;;;;;;;3.20;59.22;100236.09;4378500;32;34227;-79
2021/12/12 17:36:33;;;;;;;;;;;;;;;3.50;58.28;100236.09;4370084;32;32090;-79
2021/12/12 17:39:07;;;;;;;;;;;;;;;3.26;58.70;100242.75;4369780;32;33508;-80
2021/12/12 17:41:54;;;;;;;;;;;;;;;3.48;58.39;100243.22;4394223;32;35358;-80
2021/12/12 17:44:41;;;;;;;;;;;;;;;3.50;58.53;100239.56;4377772;32;34177;-81
2021/12/12 17:47:27;;;;;;;;;;;;;;;3.36;58.45;100244.78;4369448;32;32744;-78
2021/12/12 17:50:14;;;;;;;;;;;;;;;3.58;57.86;100249.66;4381500;32;33760;-79
2021/12/12 17:53:00;;;;;;;;;;;;;;;3.49;58.23;100258.09;4368150;32;33905;-79
2021/12/12 17:55:40;;;;;;;;;;;;;;;3.67;57.50;100257.84;4383402;32;34749;-78
2021/12/12 17:58:11;;;;;;;;;;;;;;;3.52;57.93;100255.25;4382188;32;33370;-83
2021/12/12 18:00:42;;;;;;;;;;;;;;;3.54;57.48;100267.41;4380076;32;35260;-79
2021/12/12 18:03:13;;;;;;;;;;;;;;;3.31;58.55;100272.28;4375873;32;34632;-79